Latest Weather Observations for Cape Borda

IDS60801

Issued at 11:01 am CDT Wednesday 10 February 2016 (issued every 30 minutes, with the page automatically refreshed every 10 minutes)

About weather observations | Map of weather stations | Latest weather observations for SA | Other Formats
Station Details ID: 022823 Name: CAPE BORDA Lat: -35.75 Lon: 136.60 Height: 158.0 m
Data from the previous 72 hours. | See also: Recent months at Cape Borda
Date/Time
CDT
Temp
°C
App
Temp
°C
Dew
Point
Rel
Hum
%
Delta-T
°C
Wind Press
QNH
hPa
Press
MSL
hPa
Rain
since 9 am
mm
Dir
 
Spd
km/h
Gust
km/h
Spd
kts
Gust
kts
10/11:00am 22.9 20.1 11.3 48 6.5 SE 17 26 9 14 1016.9 - 0.0
10/10:30am 22.8 20.7 9.6 43 7.2 SSE 11 17 6 9 1017.1 - 0.0
10/10:00am 21.3 19.0 11.7 54 5.4 SSE 15 22 8 12 1016.9 - 0.0
10/09:30am 20.1 19.2 12.5 61 4.3 SE 9 15 5 8 1016.9 - 0.0
10/09:00am 18.1 15.7 12.6 70 3.1 SE 17 22 9 12 1016.9 1016.6 0.0
10/08:30am 16.4 13.8 13.2 81 1.8 SE 19 22 10 12 1016.8 - 0.0
10/08:00am 15.2 12.7 13.4 89 1.0 SE 19 24 10 13 1016.4 - 0.0
10/07:30am 13.9 10.6 12.8 93 0.6 ESE 22 26 12 14 1016.1 - 0.0
10/07:00am 13.4 10.1 12.7 95 0.4 ESE 22 28 12 15 1016.0 - 0.0
10/06:30am 13.3 10.3 12.6 95 0.4 SE 20 24 11 13 1015.8 - 0.0
10/06:00am 13.7 10.4 12.8 94 0.5 SE 22 33 12 18 1015.8 1015.4 0.0
10/05:30am 13.4 10.0 12.5 94 0.5 ESE 22 28 12 15 1015.2 - 0.0
10/05:00am 13.8 10.2 12.9 94 0.5 ESE 24 30 13 16 1015.1 - 0.0
10/04:30am 14.0 10.4 12.9 93 0.6 SE 24 32 13 17 1015.1 - 0.0
10/04:00am 14.3 10.7 13.2 93 0.6 SE 24 33 13 18 1015.4 - 0.0
10/03:30am 14.4 10.9 13.3 93 0.6 SE 24 33 13 18 1015.6 - 0.0
10/03:00am 14.5 10.6 13.2 92 0.7 SE 26 33 14 18 1015.7 1015.3 0.0
10/02:30am 14.5 10.6 13.4 93 0.6 SE 26 32 14 17 1015.8 - 0.0
10/02:00am 14.6 11.0 13.2 91 0.8 SE 24 32 13 17 1016.1 - 0.0
10/01:30am 14.6 10.3 13.3 92 0.7 SSE 28 35 15 19 1016.6 - 0.0
10/01:00am 14.6 10.3 13.2 91 0.8 SE 28 35 15 19 1016.7 - 0.0
10/12:30am 14.4 10.6 12.4 88 1.1 SE 24 35 13 19 1016.5 - 0.0
10/12:00am 14.6 10.6 11.8 83 1.5 SE 24 33 13 18 1016.5 1016.2 0.0
 
Date/Time
CDT
Temp
°C
App
Temp
°C
Dew
Point
Rel
Hum
%
Delta-T
°C
Wind Press
QNH
hPa
Press
MSL
hPa
Rain
since 9 am
mm
Dir
 
Spd
km/h
Gust
km/h
Spd
kts
Gust
kts
09/11:30pm 14.8 10.5 10.7 76 2.2 SE 24 32 13 17 1016.8 - 0.0
09/11:00pm 15.2 10.6 10.9 75 2.3 SE 26 32 14 17 1016.9 - 0.0
09/10:30pm 15.3 10.4 11.2 76 2.2 SE 28 35 15 19 1017.0 - 0.0
09/10:00pm 15.5 10.3 11.6 77 2.1 SE 30 39 16 21 1017.0 - 0.0
09/09:30pm 15.9 11.6 11.9 77 2.2 SE 26 35 14 19 1017.0 - 0.0
09/09:00pm 16.7 11.6 11.8 73 2.7 SE 30 41 16 22 1016.9 1016.6 0.0
09/08:30pm 17.7 13.8 12.1 69 3.1 SE 24 35 13 19 1017.0 - 0.0
09/08:00pm 19.5 15.2 12.2 62 4.1 SE 26 33 14 18 1016.8 - 0.0
09/07:30pm 21.6 17.0 11.0 51 5.9 SE 26 39 14 21 1016.7 - 0.0
09/07:00pm 23.0 18.2 8.9 40 7.6 SE 24 35 13 19 1016.9 - 0.0
09/06:30pm 24.3 19.7 9.5 39 8.1 SE 24 32 13 17 1016.7 - 0.0
09/06:00pm 25.3 20.4 8.5 34 9.1 SE 24 32 13 17 1016.9 1016.6 0.0
09/05:30pm 26.9 23.0 10.9 36 9.1 SSE 22 30 12 16 1017.0 - 0.0
09/05:00pm 27.3 24.2 11.5 37 9.1 SE 19 30 10 16 1017.0 - 0.0
09/04:30pm 27.5 25.0 12.2 38 8.9 SSE 17 26 9 14 1017.2 - 0.0
09/04:00pm 27.6 25.8 13.3 41 8.5 SE 15 24 8 13 1017.4 - 0.0
09/03:30pm 27.5 26.2 13.8 43 8.2 SE 13 20 7 11 1017.9 - 0.0
09/03:00pm 27.5 26.3 14.0 43 8.1 S 13 30 7 16 1018.1 1017.8 0.0
09/02:30pm 24.5 22.5 11.4 43 7.4 N 13 17 7 9 1018.5 - 0.0
09/02:00pm 24.6 22.2 11.3 43 7.5 NNE 15 19 8 10 1018.8 - 0.0
09/01:30pm 23.7 21.7 12.8 50 6.3 N 15 19 8 10 1019.1 - 0.0
09/01:00pm 24.2 22.2 11.5 45 7.2 N 13 17 7 9 1019.4 - 0.0
09/12:30pm 24.6 23.3 12.5 46 7.0 NW 11 13 6 7 1019.6 - 0.0
09/12:00pm 23.2 21.6 11.7 48 6.5 WNW 11 15 6 8 1020.0 1019.7 0.0
09/11:30am 22.7 21.4 12.6 53 5.8 NW 11 15 6 8 1020.0 - 0.0
09/11:00am 23.0 22.0 12.3 51 6.1 E 9 15 5 8 1020.0 - 0.0
09/10:30am 22.9 21.0 10.4 45 6.9 ESE 11 19 6 10 1020.1 - 0.0
09/10:00am 21.6 18.2 11.4 52 5.7 ESE 20 26 11 14 1020.1 - 0.0
09/09:30am 20.2 17.0 11.8 58 4.7 ESE 20 26 11 14 1020.4 - 0.0
09/09:00am 18.4 15.4 12.7 69 3.2 ESE 20 33 11 18 1020.4 1020.1 0.0
09/08:30am 17.1 13.9 13.0 77 2.3 ESE 22 32 12 17 1020.5 - 0.0
09/08:00am 15.6 12.3 12.9 84 1.5 ESE 22 30 12 16 1020.5 - 0.0
09/07:30am 14.5 11.2 12.9 90 0.9 ESE 22 32 12 17 1020.2 - 0.0
09/07:00am 14.0 10.6 12.5 91 0.8 ESE 22 33 12 18 1020.1 - 0.0
09/06:30am 14.0 9.8 12.5 91 0.8 ESE 26 33 14 18 1020.1 - 0.0
09/06:00am 14.2 10.1 12.6 90 0.9 ESE 26 37 14 20 1019.9 1019.6 0.0
09/05:30am 14.2 10.4 12.4 89 1.0 ESE 24 33 13 18 1020.1 - 0.0
09/05:00am 14.1 11.0 12.3 89 1.0 ESE 20 32 11 17 1020.1 - 0.0
09/04:30am 14.0 11.1 12.2 89 1.0 ESE 19 28 10 15 1020.4 - 0.0
09/04:00am 14.2 11.2 12.0 87 1.2 ESE 19 28 10 15 1020.6 - 0.0
09/03:30am 14.2 12.0 12.0 87 1.2 ESE 15 22 8 12 1020.9 - 0.0
09/03:00am 14.3 11.7 12.1 87 1.2 ESE 17 24 9 13 1021.2 1020.8 0.0
09/02:30am 14.6 11.5 12.2 85 1.3 SE 20 35 11 19 1021.2 - 0.0
09/02:00am 14.8 11.9 12.4 85 1.3 ESE 19 30 10 16 1021.6 - 0.0
09/01:30am 14.9 11.8 12.3 84 1.4 SE 20 37 11 20 1021.8 - 0.0
09/01:00am 15.0 12.0 12.4 84 1.4 SE 20 32 11 17 1022.0 - 0.0
09/12:30am 15.1 11.7 12.6 85 1.4 SE 22 33 12 18 1022.1 - 0.0
09/12:00am 15.3 11.9 12.6 84 1.5 SE 22 32 12 17 1022.4 1022.1 0.0
 
Date/Time
CDT
Temp
°C
App
Temp
°C
Dew
Point
Rel
Hum
%
Delta-T
°C
Wind Press
QNH
hPa
Press
MSL
hPa
Rain
since 9 am
mm
Dir
 
Spd
km/h
Gust
km/h
Spd
kts
Gust
kts
08/11:30pm 15.5 11.3 12.4 82 1.7 SE 26 39 14 21 1022.3 - 0.0
08/11:00pm 15.8 10.4 12.3 80 1.9 SSE 32 43 17 23 1022.5 - 0.0
08/10:32pm 15.7 11.3 13.0 84 1.5 SSE 28 46 15 25 1022.7 - 0.0
08/10:30pm 15.8 11.0 12.9 83 1.6 SSE 30 46 16 25 1022.6 - 0.0
08/10:00pm 15.9 12.3 13.2 84 1.5 SE 24 37 13 20 1022.8 - 0.0
08/09:30pm 16.2 13.0 13.2 82 1.7 SSE 22 33 12 18 1022.7 - 0.0
08/09:00pm 16.4 13.3 13.4 82 1.7 SSE 22 35 12 19 1022.6 1022.3 0.0
08/08:30pm 16.7 12.3 12.9 78 2.1 SSE 28 39 15 21 1022.5 - 0.0
08/08:00pm 17.9 14.1 12.5 70 3.0 SSE 24 35 13 19 1022.4 - 0.0
08/07:30pm 18.4 13.4 12.3 67 3.4 SSE 30 44 16 24 1022.0 - 0.0
08/07:06pm 18.9 13.7 12.7 67 3.5 SSE 32 50 17 27 1021.9 - 0.0
08/07:00pm 19.4 14.5 12.7 65 3.8 SSE 30 43 16 23 1021.9 - 0.0
08/06:49pm 19.6 15.0 12.3 62 4.1 SSE 28 46 15 25 1021.9 - 0.0
08/06:30pm 20.4 15.9 12.6 61 4.4 SSE 28 39 15 21 1021.9 - 0.0
08/06:00pm 21.1 15.8 12.5 58 4.9 SSE 32 44 17 24 1021.8 1021.5 0.0
08/05:43pm 21.9 17.2 12.0 53 5.6 SSE 28 46 15 25 1021.8 - 0.0
08/05:30pm 22.2 16.7 11.7 51 5.9 SSE 32 44 17 24 1021.8 - 0.0
08/05:16pm 22.4 17.8 12.2 52 5.8 SSE 28 46 15 25 1021.9 - 0.0
08/05:00pm 22.6 17.8 11.6 49 6.2 SSE 28 43 15 23 1022.1 - 0.0
08/04:30pm 22.4 16.5 10.4 46 6.6 SE 32 43 17 23 1022.3 - 0.0
08/04:00pm 22.3 16.5 10.7 47 6.4 SE 32 46 17 25 1022.6 - 0.0
08/03:30pm 22.8 17.3 10.7 46 6.7 SE 30 44 16 24 1023.0 - 0.0
08/03:00pm 23.3 19.2 11.4 47 6.7 SE 24 39 13 21 1023.2 1022.9 0.0
08/02:30pm 22.8 18.2 11.2 48 6.5 SE 26 43 14 23 1023.5 - 0.0
08/02:00pm 22.6 18.7 12.0 51 6.0 SE 24 39 13 21 1023.6 - 0.0
08/01:30pm 21.5 17.6 12.1 55 5.3 SSE 24 35 13 19 1023.8 - 0.0
08/01:00pm 22.0 17.7 11.9 52 5.7 SE 26 37 14 20 1024.1 - 0.0
08/12:30pm 20.4 16.1 12.0 58 4.7 SE 26 41 14 22 1024.3 - 0.0
08/12:00pm 20.0 15.0 12.1 60 4.4 SE 30 44 16 24 1024.3 1024.0 0.0
08/11:30am 18.3 14.0 12.2 67 3.4 SE 26 41 14 22 1024.4 - 0.0
08/11:00am 17.8 13.5 12.2 70 3.1 SSE 26 37 14 20 1024.4 - 0.0
08/10:30am 17.3 13.0 12.0 71 2.9 SE 26 37 14 20 1024.6 - 0.0
08/10:00am 17.1 12.8 12.0 72 2.8 SSE 26 39 14 21 1024.6 - 0.0
08/09:30am 16.9 12.5 11.8 72 2.8 SE 26 39 14 21 1024.6 - 0.0
08/09:00am 16.6 12.1 11.4 71 2.8 SSE 26 35 14 19 1024.4 1024.1 0.0
08/08:30am 16.3 12.3 11.7 74 2.5 SE 24 33 13 18 1024.2 - 0.0
08/08:00am 16.1 12.5 11.9 76 2.3 SE 22 28 12 15 1023.9 - 0.0
08/07:30am 16.0 12.7 11.6 75 2.4 SE 20 35 11 19 1023.5 - 0.0
08/07:00am 15.9 12.3 11.7 76 2.3 SSE 22 30 12 16 1023.1 - 0.0
08/06:30am 15.8 12.1 11.6 76 2.3 SSE 22 33 12 18 1023.0 - 0.0
08/06:00am 15.8 12.1 11.4 75 2.4 SSE 22 35 12 19 1022.7 1022.4 0.0
08/05:30am 15.6 12.5 11.5 76 2.2 SE 19 28 10 15 1022.4 - 0.0
08/05:00am 15.4 11.6 11.1 75 2.3 SE 22 33 12 18 1022.1 - 0.0
08/04:30am 15.1 12.6 11.0 76 2.2 SSE 15 22 8 12 1022.1 - 0.0
08/04:00am 14.6 12.0 10.8 78 2.0 SSE 15 24 8 13 1021.9 - 0.0
08/03:30am 14.4 12.1 10.6 78 2.0 SSE 13 20 7 11 1022.0 - 0.0
08/03:00am 15.2 11.6 10.7 74 2.4 SE 20 32 11 17 1022.1 1021.8 0.0
08/02:30am 15.6 12.1 10.9 73 2.5 SSE 20 32 11 17 1022.4 - 0.0
08/02:00am 15.8 12.5 10.9 72 2.6 SSE 19 26 10 14 1022.5 - 0.0
08/01:30am 15.9 12.3 10.6 71 2.8 SSE 20 28 11 15 1022.8 - 0.0
08/01:00am 15.9 13.0 11.1 73 2.6 SSE 17 24 9 13 1022.8 - 0.0
08/12:30am 16.1 12.2 10.9 71 2.8 SSE 22 32 12 17 1022.9 - 0.0
08/12:00am 16.3 12.9 11.3 72 2.7 SSE 20 32 11 17 1022.8 1022.5 0.0
 
Date/Time
CDT
Temp
°C
App
Temp
°C
Dew
Point
Rel
Hum
%
Delta-T
°C
Wind Press
QNH
hPa
Press
MSL
hPa
Rain
since 9 am
mm
Dir
 
Spd
km/h
Gust
km/h
Spd
kts
Gust
kts
07/11:30pm 16.5 12.7 11.1 70 2.9 SSE 22 30 12 16 1022.8 - 0.0
07/11:00pm 16.5 13.3 11.1 70 2.9 SSE 19 30 10 16 1022.9 - 0.0
07/10:30pm 16.5 12.7 11.3 71 2.8 SSE 22 33 12 18 1022.8 - 0.0
07/10:00pm 16.5 12.6 10.9 69 3.0 SSE 22 33 12 18 1022.5 - 0.0
07/09:30pm 16.6 12.8 11.0 69 3.0 S 22 35 12 19 1022.0 - 0.0
07/09:00pm 16.8 13.8 12.7 77 2.3 S 20 32 11 17 1021.7 1021.4 0.0
07/08:30pm 17.1 13.5 13.2 78 2.2 S 24 35 13 19 1021.3 - 0.0
07/08:00pm 18.0 14.3 12.8 71 2.9 SSE 24 35 13 19 1020.9 - 0.0
07/07:30pm 18.3 14.3 13.0 71 3.0 S 26 39 14 21 1020.3 - 0.0
07/07:00pm 19.6 14.8 12.9 65 3.8 S 30 41 16 22 1019.9 - 0.0
07/06:30pm 20.2 14.7 12.0 59 4.6 SSE 32 43 17 23 1019.6 - 0.0
07/06:00pm 21.0 16.1 12.5 58 4.8 SSE 30 41 16 22 1019.4 1019.1 0.0
07/05:30pm 21.7 16.9 11.7 53 5.6 S 28 39 15 21 1019.3 - 0.0
07/05:00pm 23.0 19.0 11.9 49 6.3 SSE 24 41 13 22 1019.2 - 0.0
07/04:30pm 23.0 19.1 12.1 50 6.2 SSE 24 37 13 20 1019.1 - 0.0
07/04:00pm 22.8 18.6 12.3 51 6.0 SSE 26 39 14 21 1019.0 - 0.0
07/03:30pm 23.1 18.5 12.2 50 6.2 S 28 43 15 23 1019.0 - 0.0
07/03:00pm 22.9 18.3 12.4 51 6.0 S 28 44 15 24 1019.0 1018.7 0.0
07/02:30pm 23.2 18.7 12.6 51 6.1 S 28 39 15 21 1019.1 - 0.0
07/02:00pm 22.9 18.5 12.8 53 5.8 S 28 35 15 19 1019.3 - 0.0
07/01:30pm 22.8 17.9 12.5 52 5.9 S 30 41 16 22 1019.3 - 0.0
07/01:00pm 23.4 19.4 13.0 52 6.0 S 26 37 14 20 1019.4 - 0.0
07/12:30pm 22.3 19.3 12.5 53 5.6 SSE 20 32 11 17 1019.5 - 0.0
07/12:00pm 21.9 18.3 13.0 57 5.1 S 24 32 13 17 1019.5 1019.2 0.0
07/11:30am 21.6 18.4 13.1 58 4.9 S 22 33 12 18 1019.6 - 0.0

Other Formats:

Comma delimited format used in spreadsheet applications
http://www.bom.gov.au/fwo/IDS60801/IDS60801.95805.axf

JavaScript Object Notation format (JSON) in row-major order
http://www.bom.gov.au/fwo/IDS60801/IDS60801.95805.json